Clarkston, Utah
Current Conditions -  °F | °C
As of 12:23 PM on Saturday 20 Dec 2014 (Local Time) from KLGU Reporting Station
Light Rain Light Rain  
Wind Chill: 32°   Ceiling: 2600
Heat Index: 37°   Visibility: 3mi
Dew Point: 35°   Wind: 6mph
Humidity: 93%   Direction: 280°W
Pressure: 30.07"   Gusts: NA
Location:  41.92°N, 112.05°W
Report Text: KLGU 201923Z AUTO 28005KT 3SM -RA BR FEW005 SCT016 OVC026 03/02 A3007 RMK AO2 UPE08RAB08 P0002 T00280017
Loading
Personal Weather Stations






























Interactive Weather Map New forecast layout! Learn more

10-Day Weather Forecast

Advertisements
Track Severe Weather on mobile